Terminal Aerodrome Forecast
Issued by NWS

Home | Current Version | Previous Version | Text Only | Print | Product List | Glossary On
Versions: 1 2 3 4 5 6 7 8 9 10 11 12 13 14 15 16 17 18 19 20 21 22 23 24 25 26 27 28 29 30
000
FTUS43 KGRB 061147
TAFRHI
TAF
KRHI 061147Z 0612/0712 26006KT P6SM SCT200 WS020/29030KT
     FM061600 24010G16KT P6SM SCT100 SCT200
     FM062200 24008KT P6SM VCSH BKN100
     FM070200 25008KT P6SM VCSH BKN050
      TEMPO 0702/0706 3SM -TSRA BKN025CB
     FM070600 35009KT P6SM VCSH SCT025 BKN040=

USA.gov is the U.S. government's official web portal to all federal, state and local government web resources and services.